»·PEaware :: ANW993 KLAX-KSFO

ANW993 :: KLAX-KSFO

FLIGHT INFORMATION

Flight Status: Arrived
Operator:
Air Northwest (website)
More flights by this operator :: More flights under this callsign
Pilot: Bryan L. (6428)
Aircraft: BRITISH AERO BAe-146-100 STATESMAN
(B461)
More flights by this aircraft type
Origin: KLAX Los Angeles Intl
United States
Destination: KSFO San Francisco Intl
United States
More flights between these airports :: More routes between these airports
Route: +VTU5 RZS J501 BSR BSR2
File this flight plan on PilotEdge
Remarks: first time on this route and new aircraft
Altitude:
(Current/Filed)
28,000ft
Speed:
(Current/Filed)
300kts
Departed: 22-Feb-15 11:27 AM
Arrived: 22-Feb-15 12:35 PM
Distance/Time
Traveled:
293nm/1:08
Distance/Time
To Go:
Arrived

Flight Plot

Page will automatically refresh every two minutes.


Map Options




Map Legend


Flown Route
Filed Route
Departure Airport
Arrival Airport
Navaid (VOR, NDB)
Fix

Horizontal Profiles

Position Reports

Time Latitude Longitude Heading Altitude Ground
Speed
22-Feb-15 11:06 33.947503 -118.400820 241 131ft 0kts
22-Feb-15 11:07 33.947503 -118.400820 241 131ft 0kts
22-Feb-15 11:08 33.947503 -118.400820 241 131ft 0kts
22-Feb-15 11:09 33.947503 -118.400820 241 131ft 0kts
22-Feb-15 11:10 33.947503 -118.400820 241 131ft 0kts
22-Feb-15 11:11 33.947503 -118.400820 241 131ft 0kts
22-Feb-15 11:12 33.947503 -118.400820 241 131ft 0kts
22-Feb-15 11:13 33.947503 -118.400820 241 131ft 0kts
22-Feb-15 11:14 33.947503 -118.400820 241 131ft 0kts
22-Feb-15 11:15 33.947503 -118.400820 241 131ft 0kts
22-Feb-15 11:16 33.947449 -118.400307 348 131ft 0kts
22-Feb-15 11:17 33.949236 -118.401572 317 131ft 0kts
22-Feb-15 11:18 33.949236 -118.401572 317 131ft 0kts
22-Feb-15 11:19 33.949236 -118.401572 317 131ft 0kts
22-Feb-15 11:20 33.949304 -118.401634 322 131ft 11kts
22-Feb-15 11:21 33.947849 -118.422012 259 133ft 175kts
22-Feb-15 11:22 33.943304 -118.496498 263 2331ft 257kts
22-Feb-15 11:23 33.938276 -118.577517 264 3958ft 261kts
22-Feb-15 11:24 33.933087 -118.665755 263 5765ft 267kts
22-Feb-15 11:25 33.928881 -118.740704 263 7265ft 274kts
22-Feb-15 11:26 33.923015 -118.848658 264 9366ft 281kts
22-Feb-15 11:27 33.949131 -118.916903 314 10960ft 297kts
22-Feb-15 11:28 34.009679 -118.986110 311 12768ft 304kts
22-Feb-15 11:29 34.048369 -119.040546 306 14035ft 316kts
22-Feb-15 11:30 34.101499 -119.122778 305 15778ft 329kts
22-Feb-15 11:31 34.156480 -119.209027 305 17541ft 338kts
22-Feb-15 11:32 34.214282 -119.300379 305 19347ft 349kts
22-Feb-15 11:33 34.272538 -119.392668 305 20944ft 353kts
22-Feb-15 11:34 34.330007 -119.484013 306 22079ft 355kts
22-Feb-15 11:35 34.387949 -119.576284 307 22708ft 358kts
22-Feb-15 11:36 34.446982 -119.670524 307 22968ft 359kts
22-Feb-15 11:37 34.506901 -119.766133 312 22982ft 359kts
22-Feb-15 11:38 34.580126 -119.847974 317 22984ft 361kts
22-Feb-15 11:39 34.653002 -119.927499 318 23489ft 366kts
22-Feb-15 11:40 34.729378 -120.011028 318 24496ft 374kts
22-Feb-15 11:41 34.803632 -120.092496 318 25456ft 380kts
22-Feb-15 11:42 34.880734 -120.176691 317 26424ft 393kts
22-Feb-15 11:43 34.960510 -120.264639 316 27410ft 397kts
22-Feb-15 11:44 35.031680 -120.343343 316 27866ft 401kts
22-Feb-15 11:45 35.112656 -120.433071 316 27956ft 404kts
22-Feb-15 11:46 35.190306 -120.519357 316 27951ft 407kts
22-Feb-15 11:47 35.269643 -120.607761 316 27951ft 406kts
22-Feb-15 11:48 35.350177 -120.697764 315 27945ft 401kts
22-Feb-15 11:49 35.432013 -120.789510 315 27928ft 397kts
22-Feb-15 11:50 35.511105 -120.878328 315 26885ft 379kts
22-Feb-15 11:51 35.587226 -120.964143 315 25878ft 368kts
22-Feb-15 11:52 35.662132 -121.048794 315 24856ft 362kts
22-Feb-15 11:53 35.735390 -121.131461 314 23868ft 357kts
22-Feb-15 11:54 35.808086 -121.213792 314 23070ft 353kts
22-Feb-15 11:55 35.879870 -121.295528 314 22267ft 346kts
22-Feb-15 11:56 35.948677 -121.374200 316 21467ft 330kts
22-Feb-15 11:57 36.015778 -121.451097 319 20845ft 332kts
22-Feb-15 11:58 36.083134 -121.528152 316 20384ft 337kts
22-Feb-15 11:59 36.151029 -121.606340 316 19969ft 330kts
22-Feb-15 12:00 36.221811 -121.676895 323 19482ft 326kts
22-Feb-15 12:01 36.295265 -121.740871 323 18672ft 321kts
22-Feb-15 12:02 36.367975 -121.804009 324 17701ft 316kts
22-Feb-15 12:03 36.439131 -121.865916 324 16689ft 310kts
22-Feb-15 12:04 36.520391 -121.898762 345 15576ft 307kts
22-Feb-15 12:05 36.600419 -121.922347 345 14400ft 302kts
22-Feb-15 12:06 36.679691 -121.945614 346 13220ft 297kts
22-Feb-15 12:07 36.760022 -121.968762 348 12019ft 295kts
22-Feb-15 12:08 36.839885 -121.989565 348 11025ft 293kts
22-Feb-15 12:09 36.918681 -122.010136 348 10327ft 285kts
22-Feb-15 12:10 36.994720 -122.030062 348 9984ft 277kts
22-Feb-15 12:11 37.069046 -122.049610 348 9989ft 272kts
22-Feb-15 12:12 37.142410 -122.068913 349 9998ft 269kts
22-Feb-15 12:13 37.214538 -122.087933 348 9494ft 259kts
22-Feb-15 12:14 37.282221 -122.105644 348 8543ft 248kts
22-Feb-15 12:15 37.349364 -122.123146 347 8082ft 246kts
22-Feb-15 12:16 37.415226 -122.140561 346 7978ft 229kts
22-Feb-15 12:17 37.475991 -122.156756 346 7996ft 222kts
22-Feb-15 12:18 37.536569 -122.172942 348 7767ft 223kts
22-Feb-15 12:19 37.587532 -122.204186 278 6414ft 230kts
22-Feb-15 12:20 37.585613 -122.268588 269 4865ft 209kts
22-Feb-15 12:21 37.601733 -122.334583 301 3074ft 196kts
22-Feb-15 12:22 37.632233 -122.409547 298 1128ft 256kts
22-Feb-15 12:23 37.612411 -122.475091 177 2601ft 218kts
22-Feb-15 12:24 37.569863 -122.442956 122 2517ft 237kts
22-Feb-15 12:25 37.543566 -122.378970 107 2166ft 253kts
22-Feb-15 12:26 37.553431 -122.288219 49 2305ft 223kts
22-Feb-15 12:27 37.587154 -122.300737 297 1203ft 219kts
22-Feb-15 12:28 37.612849 -122.361314 301 18ft 164kts
22-Feb-15 12:29 37.618544 -122.379063 151 18ft 16kts
22-Feb-15 12:30 37.618185 -122.378862 161 18ft 0kts
22-Feb-15 12:31 37.618185 -122.378862 161 18ft 0kts
22-Feb-15 12:32 37.617941 -122.378764 163 18ft 14kts
22-Feb-15 12:33 37.615305 -122.382231 219 18ft 0kts

Navigation Log

Ident Type
Flight plan parsing failed, navigation log unavailable